Townville, SC

4:48 PM EDT on June 02, 2015 (GMT -0400)
Reed Creek | | Change Station
CLOSE
Current Station
Personal Weather Station
Location: Hartwell, GA
Elevation: 745 ft
Nearby Weather Stations
Active Advisory: Special Statement

Elev 745 ft 34.48 °N, 82.91 °W | Updated 4 minutes ago

Partly Cloudy
Partly Cloudy
84.6 °F
Feels Like 87 °F
N
0.0
Wind Variable Wind from NE

Today
High -- | Low -- °F
--% Chance of Precip.
Yesterday
High -- | Low -- °F
Precip. -- in
6:19 AM 8:39 PM
Full, 100% visible
Pressure 29.96 in
Visibility 10.0 miles
Clouds Scattered Clouds 4500 ft
Mostly Cloudy 5500 ft
Overcast 9000 ft
Heat Index 87 °F
Dew Point 67 °F
Humidity 56%
Rainfall 0.18 in
Snow Depth Not available.
UV 2 out of 12
Pollen 2.40 out of 12
Air Quality Not available.
Flu Activity Local Activity
SPECI KCEU 022045Z AUTO 02006KT 10SM SCT045 BKN055 OVC090 24/15 A2996 RMK AO2 LTG DSNT NE-SE TSB23E39 T02440150

More Conditions Fewer Conditions

Pressure 29.96 in
Visibility 10.0 miles
Clouds Scattered Clouds 4500 ft
Mostly Cloudy 5500 ft
Overcast 9000 ft
Heat Index 87 °F
Dew Point 67 °F
Humidity 56%
Rainfall 0.18 in
Snow Depth Not available.
UV 2 out of 12
Pollen 2.40 out of 12
Air Quality Not available.
Flu Activity Local Activity
SPECI KCEU 022045Z AUTO 02006KT 10SM SCT045 BKN055 OVC090 24/15 A2996 RMK AO2 LTG DSNT NE-SE TSB23E39 T02440150

More Conditions Fewer Conditions

10-Day Weather Forecast

×

Almanac

Astronomy

Jun. 02, 2015 Rise Set
Actual Time
Civil Twilight
Nautical Twilight
Astronomical Twilight
Moon
Length of Visible Light
Length of Day
Tomorrow will be .
, % of the Moon is Illuminated

Today's Extremes

State Highs State Lows

Community

WunderPhotos

Upload Photos

1,826,022 photos uploaded!

WunderBlogs® & News

Nearby

Air Quality

  Air Quality AQ Index Pollutant
Not available.

Snow Depth

Station Depth Elevation

Earthquake Activity

City Distance Mag. Time & Date
Minimum magnitude displayed is 2.5.

Coastal Water Temperatures

Place Temperature

Stations

Nearby Weather Stations

Station Location Temp. Windchill Dew Point Humidity Wind Precip. Elev Updated Type
                   
Special Statement
Statement as of 4:40 PM EDT on June 02, 2015

... A strong thunderstorm will impact portions of southeastern
Greenville and east central Anderson counties until 515 PM EDT...

At 440 PM EDT... Doppler radar was tracking a strong thunderstorm 13
miles east of Anderson... or near Honea Path... moving northeast at 25
mph.

Pea size hail and wind gusts up to 40 mph will be possible with this
storm.

Locations impacted include...
Mauldin... Belton... Honea Path... Donaldson center... Simpsonville...
Princeton and Fork Shoals.

This storm may intensify... so be certain to monitor local radio and
TV stations... as well as local cable TV outlets... for additional
information and possible warnings from the National Weather Service.

Lat... Lon 3448 8253 3479 8236 3470 8223 3453 8224
      3441 8242
time... Mot... loc 2040z 212deg 20kt 3450 8241


Moore